sensor_id;sensor_type;location;lat;lon;timestamp;P1;durP1;ratioP1;P2;durP2;ratioP2
1378;SDS011;683;48.738;9.226;2023-05-10T00:01:26;1.83;;;1.57;;
1378;SDS011;683;48.738;9.226;2023-05-10T00:03:54;1.30;;;1.20;;
1378;SDS011;683;48.738;9.226;2023-05-10T00:06:21;3.27;;;1.57;;
1378;SDS011;683;48.738;9.226;2023-05-10T00:08:49;1.30;;;1.30;;
1378;SDS011;683;48.738;9.226;2023-05-10T00:11:16;1.10;;;1.10;;
1378;SDS011;683;48.738;9.226;2023-05-10T00:13:44;1.43;;;1.33;;
1378;SDS011;683;48.738;9.226;2023-05-10T00:16:14;1.43;;;1.33;;
1378;SDS011;683;48.738;9.226;2023-05-10T00:18:41;1.20;;;1.17;;
1378;SDS011;683;48.738;9.226;2023-05-10T00:21:09;4.10;;;1.20;;
1378;SDS011;683;48.738;9.226;2023-05-10T00:23:37;1.33;;;1.27;;
1378;SDS011;683;48.738;9.226;2023-05-10T00:26:05;1.20;;;1.10;;
1378;SDS011;683;48.738;9.226;2023-05-10T00:28:33;0.73;;;0.70;;
1378;SDS011;683;48.738;9.226;2023-05-10T00:31:02;0.90;;;0.90;;
1378;SDS011;683;48.738;9.226;2023-05-10T00:33:31;1.00;;;1.00;;
1378;SDS011;683;48.738;9.226;2023-05-10T00:35:58;2.43;;;1.50;;
1378;SDS011;683;48.738;9.226;2023-05-10T00:38:26;1.00;;;1.00;;
1378;SDS011;683;48.738;9.226;2023-05-10T00:40:54;0.60;;;0.60;;
1378;SDS011;683;48.738;9.226;2023-05-10T00:43:27;0.70;;;0.70;;
1378;SDS011;683;48.738;9.226;2023-05-10T00:45:55;0.80;;;0.60;;
1378;SDS011;683;48.738;9.226;2023-05-10T00:48:23;0.50;;;0.50;;
1378;SDS011;683;48.738;9.226;2023-05-10T00:50:52;1.03;;;0.70;;
1378;SDS011;683;48.738;9.226;2023-05-10T00:53:20;0.80;;;0.80;;
1378;SDS011;683;48.738;9.226;2023-05-10T00:55:48;1.57;;;0.57;;
1378;SDS011;683;48.738;9.226;2023-05-10T00:58:16;0.47;;;0.47;;
1378;SDS011;683;48.738;9.226;2023-05-10T01:00:44;0.40;;;0.30;;
1378;SDS011;683;48.738;9.226;2023-05-10T01:03:14;0.50;;;0.47;;
1378;SDS011;683;48.738;9.226;2023-05-10T01:05:42;0.53;;;0.53;;
1378;SDS011;683;48.738;9.226;2023-05-10T01:08:11;0.50;;;0.50;;
1378;SDS011;683;48.738;9.226;2023-05-10T01:10:39;0.40;;;0.40;;
1378;SDS011;683;48.738;9.226;2023-05-10T01:13:07;1.00;;;0.30;;
1378;SDS011;683;48.738;9.226;2023-05-10T01:15:35;1.40;;;0.60;;
1378;SDS011;683;48.738;9.226;2023-05-10T01:18:04;0.77;;;0.40;;
1378;SDS011;683;48.738;9.226;2023-05-10T01:20:35;0.90;;;0.90;;
1378;SDS011;683;48.738;9.226;2023-05-10T01:23:24;0.60;;;0.60;;
1378;SDS011;683;48.738;9.226;2023-05-10T01:29:14;0.70;;;0.50;;
1378;SDS011;683;48.738;9.226;2023-05-10T01:32:06;0.63;;;0.57;;
1378;SDS011;683;48.738;9.226;2023-05-10T01:34:44;3.03;;;0.50;;
1378;SDS011;683;48.738;9.226;2023-05-10T01:37:20;0.87;;;0.40;;
1378;SDS011;683;48.738;9.226;2023-05-10T01:39:55;0.47;;;0.47;;
1378;SDS011;683;48.738;9.226;2023-05-10T01:42:29;2.93;;;0.67;;
1378;SDS011;683;48.738;9.226;2023-05-10T01:45:06;0.40;;;0.40;;
1378;SDS011;683;48.738;9.226;2023-05-10T01:47:43;0.97;;;0.60;;
1378;SDS011;683;48.738;9.226;2023-05-10T01:50:14;1.00;;;0.60;;
1378;SDS011;683;48.738;9.226;2023-05-10T01:52:46;0.60;;;0.40;;
1378;SDS011;683;48.738;9.226;2023-05-10T01:55:18;0.50;;;0.40;;
1378;SDS011;683;48.738;9.226;2023-05-10T01:57:50;1.73;;;0.60;;
1378;SDS011;683;48.738;9.226;2023-05-10T02:00:23;1.40;;;0.73;;
1378;SDS011;683;48.738;9.226;2023-05-10T02:02:54;0.70;;;0.67;;
1378;SDS011;683;48.738;9.226;2023-05-10T02:05:22;0.30;;;0.30;;
1378;SDS011;683;48.738;9.226;2023-05-10T02:07:53;2.87;;;0.63;;
1378;SDS011;683;48.738;9.226;2023-05-10T02:10:21;0.73;;;0.73;;
1378;SDS011;683;48.738;9.226;2023-05-10T02:12:48;0.50;;;0.40;;
1378;SDS011;683;48.738;9.226;2023-05-10T02:15:18;0.50;;;0.50;;
1378;SDS011;683;48.738;9.226;2023-05-10T02:17:48;1.07;;;0.50;;
1378;SDS011;683;48.738;9.226;2023-05-10T02:20:18;0.60;;;0.60;;
1378;SDS011;683;48.738;9.226;2023-05-10T02:22:48;3.40;;;0.60;;
1378;SDS011;683;48.738;9.226;2023-05-10T02:25:19;1.63;;;0.63;;
1378;SDS011;683;48.738;9.226;2023-05-10T02:27:48;0.90;;;0.80;;
1378;SDS011;683;48.738;9.226;2023-05-10T02:30:16;0.53;;;0.53;;
1378;SDS011;683;48.738;9.226;2023-05-10T02:32:45;0.70;;;0.70;;
1378;SDS011;683;48.738;9.226;2023-05-10T02:35:14;0.50;;;0.50;;
1378;SDS011;683;48.738;9.226;2023-05-10T02:37:44;0.70;;;0.70;;
1378;SDS011;683;48.738;9.226;2023-05-10T02:40:13;0.60;;;0.60;;
1378;SDS011;683;48.738;9.226;2023-05-10T02:42:44;0.53;;;0.47;;
1378;SDS011;683;48.738;9.226;2023-05-10T02:45:18;0.40;;;0.40;;
1378;SDS011;683;48.738;9.226;2023-05-10T02:47:48;1.63;;;0.70;;
1378;SDS011;683;48.738;9.226;2023-05-10T02:50:16;0.80;;;0.80;;
1378;SDS011;683;48.738;9.226;2023-05-10T02:52:46;0.50;;;0.50;;
1378;SDS011;683;48.738;9.226;2023-05-10T02:55:19;0.93;;;0.90;;
1378;SDS011;683;48.738;9.226;2023-05-10T02:57:53;0.97;;;0.60;;
1378;SDS011;683;48.738;9.226;2023-05-10T03:00:24;0.50;;;0.50;;
1378;SDS011;683;48.738;9.226;2023-05-10T03:02:52;1.13;;;0.80;;
1378;SDS011;683;48.738;9.226;2023-05-10T03:05:20;1.07;;;0.70;;
1378;SDS011;683;48.738;9.226;2023-05-10T03:07:49;0.60;;;0.60;;
1378;SDS011;683;48.738;9.226;2023-05-10T03:10:18;0.60;;;0.60;;
1378;SDS011;683;48.738;9.226;2023-05-10T03:12:52;2.10;;;0.60;;
1378;SDS011;683;48.738;9.226;2023-05-10T03:15:34;0.80;;;0.80;;
1378;SDS011;683;48.738;9.226;2023-05-10T03:18:09;0.50;;;0.50;;
1378;SDS011;683;48.738;9.226;2023-05-10T03:20:42;0.90;;;0.77;;
1378;SDS011;683;48.738;9.226;2023-05-10T03:23:17;1.43;;;1.10;;
1378;SDS011;683;48.738;9.226;2023-05-10T03:25:49;0.87;;;0.87;;
1378;SDS011;683;48.738;9.226;2023-05-10T03:28:18;1.97;;;0.80;;
1378;SDS011;683;48.738;9.226;2023-05-10T03:30:47;1.33;;;0.87;;
1378;SDS011;683;48.738;9.226;2023-05-10T03:33:16;1.00;;;1.00;;
1378;SDS011;683;48.738;9.226;2023-05-10T03:35:45;1.20;;;1.10;;
1378;SDS011;683;48.738;9.226;2023-05-10T03:38:16;1.27;;;1.20;;
1378;SDS011;683;48.738;9.226;2023-05-10T03:40:44;1.30;;;1.20;;
1378;SDS011;683;48.738;9.226;2023-05-10T03:43:11;1.40;;;1.30;;
1378;SDS011;683;48.738;9.226;2023-05-10T03:45:39;2.23;;;2.13;;
1378;SDS011;683;48.738;9.226;2023-05-10T03:48:07;1.83;;;1.40;;
1378;SDS011;683;48.738;9.226;2023-05-10T03:50:34;1.87;;;1.77;;
1378;SDS011;683;48.738;9.226;2023-05-10T03:53:02;1.70;;;1.60;;
1378;SDS011;683;48.738;9.226;2023-05-10T03:55:31;1.60;;;1.50;;
1378;SDS011;683;48.738;9.226;2023-05-10T03:58:01;1.70;;;1.60;;
1378;SDS011;683;48.738;9.226;2023-05-10T04:00:29;2.77;;;1.97;;
1378;SDS011;683;48.738;9.226;2023-05-10T04:02:59;2.07;;;1.97;;
1378;SDS011;683;48.738;9.226;2023-05-10T04:05:27;3.10;;;1.70;;
1378;SDS011;683;48.738;9.226;2023-05-10T04:07:54;1.70;;;1.60;;
1378;SDS011;683;48.738;9.226;2023-05-10T04:10:22;2.03;;;1.93;;
1378;SDS011;683;48.738;9.226;2023-05-10T04:12:51;1.90;;;1.80;;
1378;SDS011;683;48.738;9.226;2023-05-10T04:15:19;2.07;;;1.47;;
1378;SDS011;683;48.738;9.226;2023-05-10T04:17:46;1.73;;;1.63;;
1378;SDS011;683;48.738;9.226;2023-05-10T04:20:14;2.20;;;1.83;;
1378;SDS011;683;48.738;9.226;2023-05-10T04:22:42;1.70;;;1.60;;
1378;SDS011;683;48.738;9.226;2023-05-10T04:25:10;1.53;;;1.43;;
1378;SDS011;683;48.738;9.226;2023-05-10T04:27:38;1.93;;;1.40;;
1378;SDS011;683;48.738;9.226;2023-05-10T04:30:07;1.77;;;1.67;;
1378;SDS011;683;48.738;9.226;2023-05-10T04:32:36;1.93;;;1.83;;
1378;SDS011;683;48.738;9.226;2023-05-10T04:35:03;2.43;;;1.50;;
1378;SDS011;683;48.738;9.226;2023-05-10T04:37:32;1.77;;;1.67;;
1378;SDS011;683;48.738;9.226;2023-05-10T04:39:59;2.07;;;1.80;;
1378;SDS011;683;48.738;9.226;2023-05-10T04:42:29;2.10;;;1.73;;
1378;SDS011;683;48.738;9.226;2023-05-10T04:44:57;1.80;;;1.33;;
1378;SDS011;683;48.738;9.226;2023-05-10T04:47:26;1.33;;;1.23;;
1378;SDS011;683;48.738;9.226;2023-05-10T04:49:53;1.57;;;1.47;;
1378;SDS011;683;48.738;9.226;2023-05-10T04:52:21;3.00;;;1.60;;
1378;SDS011;683;48.738;9.226;2023-05-10T04:54:49;1.93;;;1.40;;
1378;SDS011;683;48.738;9.226;2023-05-10T04:57:16;1.57;;;1.47;;
1378;SDS011;683;48.738;9.226;2023-05-10T04:59:44;1.80;;;1.70;;
1378;SDS011;683;48.738;9.226;2023-05-10T05:02:12;1.63;;;1.53;;
1378;SDS011;683;48.738;9.226;2023-05-10T05:04:41;2.03;;;1.43;;
1378;SDS011;683;48.738;9.226;2023-05-10T05:07:08;1.33;;;1.23;;
1378;SDS011;683;48.738;9.226;2023-05-10T05:09:36;1.70;;;1.60;;
1378;SDS011;683;48.738;9.226;2023-05-10T05:12:04;2.03;;;1.93;;
1378;SDS011;683;48.738;9.226;2023-05-10T05:14:33;3.40;;;1.70;;
1378;SDS011;683;48.738;9.226;2023-05-10T05:17:01;1.40;;;1.30;;
1378;SDS011;683;48.738;9.226;2023-05-10T05:19:30;2.07;;;1.47;;
1378;SDS011;683;48.738;9.226;2023-05-10T05:21:59;1.63;;;1.53;;
1378;SDS011;683;48.738;9.226;2023-05-10T05:24:27;1.63;;;1.40;;
1378;SDS011;683;48.738;9.226;2023-05-10T05:26:55;1.47;;;1.37;;
1378;SDS011;683;48.738;9.226;2023-05-10T05:29:22;1.67;;;1.50;;
1378;SDS011;683;48.738;9.226;2023-05-10T05:31:50;1.70;;;1.60;;
1378;SDS011;683;48.738;9.226;2023-05-10T05:34:18;2.00;;;1.50;;
1378;SDS011;683;48.738;9.226;2023-05-10T05:36:46;1.50;;;1.40;;
1378;SDS011;683;48.738;9.226;2023-05-10T05:39:15;1.47;;;1.37;;
1378;SDS011;683;48.738;9.226;2023-05-10T05:41:43;1.93;;;1.83;;
1378;SDS011;683;48.738;9.226;2023-05-10T05:44:11;2.47;;;1.77;;
1378;SDS011;683;48.738;9.226;2023-05-10T05:46:39;2.43;;;2.23;;
1378;SDS011;683;48.738;9.226;2023-05-10T05:49:07;1.67;;;1.57;;
1378;SDS011;683;48.738;9.226;2023-05-10T05:51:34;2.23;;;1.43;;
1378;SDS011;683;48.738;9.226;2023-05-10T05:54:02;3.70;;;1.73;;
1378;SDS011;683;48.738;9.226;2023-05-10T05:56:31;1.80;;;1.70;;
1378;SDS011;683;48.738;9.226;2023-05-10T05:58:59;1.93;;;1.77;;
1378;SDS011;683;48.738;9.226;2023-05-10T06:01:26;2.03;;;1.83;;
1378;SDS011;683;48.738;9.226;2023-05-10T06:03:54;1.90;;;1.80;;
1378;SDS011;683;48.738;9.226;2023-05-10T06:06:22;3.27;;;2.43;;
1378;SDS011;683;48.738;9.226;2023-05-10T06:08:50;2.10;;;1.97;;
1378;SDS011;683;48.738;9.226;2023-05-10T06:11:17;2.67;;;2.47;;
1378;SDS011;683;48.738;9.226;2023-05-10T06:13:48;2.60;;;2.40;;
1378;SDS011;683;48.738;9.226;2023-05-10T06:16:16;2.10;;;1.90;;
1378;SDS011;683;48.738;9.226;2023-05-10T06:18:44;2.20;;;2.03;;
1378;SDS011;683;48.738;9.226;2023-05-10T06:21:12;2.17;;;1.97;;
1378;SDS011;683;48.738;9.226;2023-05-10T06:23:40;2.30;;;1.87;;
1378;SDS011;683;48.738;9.226;2023-05-10T06:26:08;1.70;;;1.60;;
1378;SDS011;683;48.738;9.226;2023-05-10T06:28:35;1.50;;;1.50;;
1378;SDS011;683;48.738;9.226;2023-05-10T06:31:05;1.67;;;1.50;;
1378;SDS011;683;48.738;9.226;2023-05-10T06:33:33;1.40;;;1.30;;
1378;SDS011;683;48.738;9.226;2023-05-10T06:36:00;4.40;;;2.07;;
1378;SDS011;683;48.738;9.226;2023-05-10T06:38:28;2.30;;;1.97;;
1378;SDS011;683;48.738;9.226;2023-05-10T06:40:56;1.90;;;1.50;;
1378;SDS011;683;48.738;9.226;2023-05-10T06:43:23;1.70;;;1.30;;
1378;SDS011;683;48.738;9.226;2023-05-10T06:45:51;1.73;;;1.57;;
1378;SDS011;683;48.738;9.226;2023-05-10T06:48:20;2.93;;;1.50;;
1378;SDS011;683;48.738;9.226;2023-05-10T06:50:48;1.87;;;1.50;;
1378;SDS011;683;48.738;9.226;2023-05-10T06:53:16;1.63;;;1.50;;
1378;SDS011;683;48.738;9.226;2023-05-10T06:55:43;1.60;;;1.47;;
1378;SDS011;683;48.738;9.226;2023-05-10T06:58:12;1.67;;;1.57;;
1378;SDS011;683;48.738;9.226;2023-05-10T07:00:39;1.80;;;1.70;;
1378;SDS011;683;48.738;9.226;2023-05-10T07:03:09;1.90;;;1.80;;
1378;SDS011;683;48.738;9.226;2023-05-10T07:05:38;1.57;;;1.47;;
1378;SDS011;683;48.738;9.226;2023-05-10T07:08:06;2.23;;;1.70;;
1378;SDS011;683;48.738;9.226;2023-05-10T07:10:33;3.27;;;1.80;;
1378;SDS011;683;48.738;9.226;2023-05-10T07:13:02;1.63;;;1.53;;
1378;SDS011;683;48.738;9.226;2023-05-10T07:15:29;1.70;;;1.60;;
1378;SDS011;683;48.738;9.226;2023-05-10T07:17:57;3.00;;;1.97;;
1378;SDS011;683;48.738;9.226;2023-05-10T07:20:25;3.33;;;1.77;;
1378;SDS011;683;48.738;9.226;2023-05-10T07:22:54;2.57;;;1.87;;
1378;SDS011;683;48.738;9.226;2023-05-10T07:25:21;1.77;;;1.67;;
1378;SDS011;683;48.738;9.226;2023-05-10T07:27:49;1.80;;;1.70;;
1378;SDS011;683;48.738;9.226;2023-05-10T07:30:17;1.70;;;1.60;;
1378;SDS011;683;48.738;9.226;2023-05-10T07:32:45;3.63;;;1.50;;
1378;SDS011;683;48.738;9.226;2023-05-10T07:35:12;3.03;;;2.53;;
1378;SDS011;683;48.738;9.226;2023-05-10T07:37:40;1.57;;;1.47;;
1378;SDS011;683;48.738;9.226;2023-05-10T07:40:10;1.80;;;1.70;;
1378;SDS011;683;48.738;9.226;2023-05-10T07:42:37;1.67;;;1.57;;
1378;SDS011;683;48.738;9.226;2023-05-10T07:45:06;1.87;;;1.77;;
1378;SDS011;683;48.738;9.226;2023-05-10T07:47:35;1.53;;;1.43;;
1378;SDS011;683;48.738;9.226;2023-05-10T07:50:02;1.40;;;1.30;;
1378;SDS011;683;48.738;9.226;2023-05-10T07:52:31;2.30;;;1.97;;
1378;SDS011;683;48.738;9.226;2023-05-10T07:54:58;1.13;;;1.10;;
1378;SDS011;683;48.738;9.226;2023-05-10T07:57:28;3.07;;;2.10;;
1378;SDS011;683;48.738;9.226;2023-05-10T07:59:56;2.57;;;1.33;;
1378;SDS011;683;48.738;9.226;2023-05-10T08:02:24;3.97;;;1.50;;
1378;SDS011;683;48.738;9.226;2023-05-10T08:04:51;2.60;;;1.30;;
1378;SDS011;683;48.738;9.226;2023-05-10T08:07:19;2.37;;;1.50;;
1378;SDS011;683;48.738;9.226;2023-05-10T08:09:47;1.33;;;1.23;;
1378;SDS011;683;48.738;9.226;2023-05-10T08:12:15;0.93;;;0.93;;
1378;SDS011;683;48.738;9.226;2023-05-10T08:14:44;1.43;;;1.30;;
1378;SDS011;683;48.738;9.226;2023-05-10T08:17:12;1.07;;;1.03;;
1378;SDS011;683;48.738;9.226;2023-05-10T08:19:39;2.33;;;1.03;;
1378;SDS011;683;48.738;9.226;2023-05-10T08:22:07;2.17;;;1.23;;
1378;SDS011;683;48.738;9.226;2023-05-10T08:24:34;2.00;;;1.33;;
1378;SDS011;683;48.738;9.226;2023-05-10T08:27:04;0.90;;;0.90;;
1378;SDS011;683;48.738;9.226;2023-05-10T08:29:32;4.83;;;1.10;;
1378;SDS011;683;48.738;9.226;2023-05-10T08:32:01;1.87;;;1.10;;
1378;SDS011;683;48.738;9.226;2023-05-10T08:34:28;1.47;;;1.33;;
1378;SDS011;683;48.738;9.226;2023-05-10T08:36:56;0.90;;;0.90;;
1378;SDS011;683;48.738;9.226;2023-05-10T08:39:24;1.80;;;1.40;;
1378;SDS011;683;48.738;9.226;2023-05-10T08:41:52;1.10;;;1.00;;
1378;SDS011;683;48.738;9.226;2023-05-10T08:44:24;3.30;;;1.00;;
1378;SDS011;683;48.738;9.226;2023-05-10T08:46:52;2.53;;;2.33;;
1378;SDS011;683;48.738;9.226;2023-05-10T08:49:22;1.67;;;0.90;;
1378;SDS011;683;48.738;9.226;2023-05-10T08:51:54;2.43;;;0.77;;
1378;SDS011;683;48.738;9.226;2023-05-10T08:54:23;1.63;;;1.00;;
1378;SDS011;683;48.738;9.226;2023-05-10T08:56:51;8.70;;;1.50;;
1378;SDS011;683;48.738;9.226;2023-05-10T08:59:19;1.70;;;0.90;;
1378;SDS011;683;48.738;9.226;2023-05-10T09:01:47;1.00;;;0.90;;
1378;SDS011;683;48.738;9.226;2023-05-10T09:04:16;1.30;;;0.80;;
1378;SDS011;683;48.738;9.226;2023-05-10T09:06:46;1.10;;;0.60;;
1378;SDS011;683;48.738;9.226;2023-05-10T09:09:13;1.13;;;0.97;;
1378;SDS011;683;48.738;9.226;2023-05-10T09:11:42;1.20;;;0.80;;
1378;SDS011;683;48.738;9.226;2023-05-10T09:14:11;1.43;;;1.20;;
1378;SDS011;683;48.738;9.226;2023-05-10T09:16:39;1.30;;;1.20;;
1378;SDS011;683;48.738;9.226;2023-05-10T09:19:07;1.37;;;1.27;;
1378;SDS011;683;48.738;9.226;2023-05-10T09:21:36;1.23;;;1.13;;
1378;SDS011;683;48.738;9.226;2023-05-10T09:24:07;1.53;;;0.80;;
1378;SDS011;683;48.738;9.226;2023-05-10T09:26:35;4.83;;;1.03;;
1378;SDS011;683;48.738;9.226;2023-05-10T09:29:12;1.00;;;1.00;;
1378;SDS011;683;48.738;9.226;2023-05-10T09:31:43;3.33;;;1.17;;
1378;SDS011;683;48.738;9.226;2023-05-10T09:34:15;1.27;;;0.80;;
1378;SDS011;683;48.738;9.226;2023-05-10T09:36:51;1.07;;;0.97;;
1378;SDS011;683;48.738;9.226;2023-05-10T09:39:21;0.97;;;0.87;;
1378;SDS011;683;48.738;9.226;2023-05-10T09:41:58;1.70;;;1.20;;
1378;SDS011;683;48.738;9.226;2023-05-10T09:44:27;3.40;;;1.17;;
1378;SDS011;683;48.738;9.226;2023-05-10T09:46:54;2.40;;;1.00;;
1378;SDS011;683;48.738;9.226;2023-05-10T09:49:22;0.83;;;0.83;;
1378;SDS011;683;48.738;9.226;2023-05-10T09:51:59;1.40;;;1.23;;
1378;SDS011;683;48.738;9.226;2023-05-10T09:54:30;1.10;;;1.00;;
1378;SDS011;683;48.738;9.226;2023-05-10T09:56:58;0.93;;;0.93;;
1378;SDS011;683;48.738;9.226;2023-05-10T09:59:26;1.23;;;1.13;;
1378;SDS011;683;48.738;9.226;2023-05-10T10:01:55;2.60;;;1.73;;
1378;SDS011;683;48.738;9.226;2023-05-10T10:04:24;1.27;;;1.00;;
1378;SDS011;683;48.738;9.226;2023-05-10T10:06:59;1.83;;;1.10;;
1378;SDS011;683;48.738;9.226;2023-05-10T10:09:28;0.90;;;0.90;;
1378;SDS011;683;48.738;9.226;2023-05-10T10:11:57;2.40;;;1.40;;
1378;SDS011;683;48.738;9.226;2023-05-10T10:14:25;1.17;;;1.07;;
1378;SDS011;683;48.738;9.226;2023-05-10T10:16:53;0.80;;;0.73;;
1378;SDS011;683;48.738;9.226;2023-05-10T10:19:21;0.67;;;0.67;;
1378;SDS011;683;48.738;9.226;2023-05-10T10:21:49;0.70;;;0.70;;
1378;SDS011;683;48.738;9.226;2023-05-10T10:24:17;0.70;;;0.67;;
1378;SDS011;683;48.738;9.226;2023-05-10T10:26:46;0.90;;;0.70;;
1378;SDS011;683;48.738;9.226;2023-05-10T10:29:20;1.03;;;0.80;;
1378;SDS011;683;48.738;9.226;2023-05-10T10:31:54;0.90;;;0.87;;
1378;SDS011;683;48.738;9.226;2023-05-10T10:34:30;0.50;;;0.47;;
1378;SDS011;683;48.738;9.226;2023-05-10T10:37:03;4.70;;;0.80;;
1378;SDS011;683;48.738;9.226;2023-05-10T10:39:32;2.20;;;1.03;;
1378;SDS011;683;48.738;9.226;2023-05-10T10:42:03;3.63;;;2.90;;
1378;SDS011;683;48.738;9.226;2023-05-10T10:44:35;1.67;;;1.20;;
1378;SDS011;683;48.738;9.226;2023-05-10T10:47:09;1.63;;;0.70;;
1378;SDS011;683;48.738;9.226;2023-05-10T10:49:50;0.80;;;0.80;;
1378;SDS011;683;48.738;9.226;2023-05-10T10:52:30;1.40;;;1.30;;
1378;SDS011;683;48.738;9.226;2023-05-10T10:55:01;0.80;;;0.80;;
1378;SDS011;683;48.738;9.226;2023-05-10T10:57:33;1.10;;;0.80;;
1378;SDS011;683;48.738;9.226;2023-05-10T11:00:19;2.67;;;0.67;;
1378;SDS011;683;48.738;9.226;2023-05-10T11:02:49;4.07;;;0.67;;
1378;SDS011;683;48.738;9.226;2023-05-10T11:08:11;1.00;;;0.90;;
1378;SDS011;683;48.738;9.226;2023-05-10T11:10:49;0.63;;;0.63;;
1378;SDS011;683;48.738;9.226;2023-05-10T11:13:34;0.70;;;0.60;;
1378;SDS011;683;48.738;9.226;2023-05-10T11:16:12;1.23;;;0.70;;
1378;SDS011;683;48.738;9.226;2023-05-10T11:18:51;1.67;;;0.93;;
1378;SDS011;683;48.738;9.226;2023-05-10T11:21:27;1.53;;;0.83;;
1378;SDS011;683;48.738;9.226;2023-05-10T11:23:56;0.90;;;0.50;;
1378;SDS011;683;48.738;9.226;2023-05-10T11:26:25;0.87;;;0.60;;
1378;SDS011;683;48.738;9.226;2023-05-10T11:28:58;1.13;;;0.60;;
1378;SDS011;683;48.738;9.226;2023-05-10T11:31:27;0.83;;;0.70;;
1378;SDS011;683;48.738;9.226;2023-05-10T11:33:56;2.10;;;1.07;;
1378;SDS011;683;48.738;9.226;2023-05-10T11:36:26;0.83;;;0.83;;
1378;SDS011;683;48.738;9.226;2023-05-10T11:38:55;1.50;;;0.80;;
1378;SDS011;683;48.738;9.226;2023-05-10T11:41:23;1.80;;;0.83;;
1378;SDS011;683;48.738;9.226;2023-05-10T11:43:53;1.00;;;0.87;;
1378;SDS011;683;48.738;9.226;2023-05-10T11:46:24;3.37;;;0.90;;
1378;SDS011;683;48.738;9.226;2023-05-10T11:48:54;0.70;;;0.60;;
1378;SDS011;683;48.738;9.226;2023-05-10T11:51:24;1.70;;;1.33;;
1378;SDS011;683;48.738;9.226;2023-05-10T11:53:53;1.43;;;1.00;;
1378;SDS011;683;48.738;9.226;2023-05-10T11:56:21;3.00;;;1.40;;
1378;SDS011;683;48.738;9.226;2023-05-10T11:58:52;1.23;;;1.20;;
1378;SDS011;683;48.738;9.226;2023-05-10T12:01:21;0.63;;;0.63;;
1378;SDS011;683;48.738;9.226;2023-05-10T12:03:51;1.63;;;0.90;;
1378;SDS011;683;48.738;9.226;2023-05-10T12:06:25;1.47;;;0.80;;
1378;SDS011;683;48.738;9.226;2023-05-10T12:08:54;1.10;;;0.80;;
1378;SDS011;683;48.738;9.226;2023-05-10T12:11:24;1.23;;;0.90;;
1378;SDS011;683;48.738;9.226;2023-05-10T12:13:54;1.00;;;0.90;;
1378;SDS011;683;48.738;9.226;2023-05-10T12:16:24;1.00;;;1.00;;
1378;SDS011;683;48.738;9.226;2023-05-10T12:18:55;1.97;;;1.10;;
1378;SDS011;683;48.738;9.226;2023-05-10T12:21:25;1.40;;;1.30;;
1378;SDS011;683;48.738;9.226;2023-05-10T12:23:54;1.47;;;0.90;;
1378;SDS011;683;48.738;9.226;2023-05-10T12:26:25;1.80;;;0.90;;
1378;SDS011;683;48.738;9.226;2023-05-10T12:28:54;2.10;;;1.30;;
1378;SDS011;683;48.738;9.226;2023-05-10T12:31:50;1.23;;;1.07;;
1378;SDS011;683;48.738;9.226;2023-05-10T12:34:22;2.63;;;0.93;;
1378;SDS011;683;48.738;9.226;2023-05-10T12:36:53;0.80;;;0.80;;
1378;SDS011;683;48.738;9.226;2023-05-10T12:39:21;2.60;;;1.00;;
1378;SDS011;683;48.738;9.226;2023-05-10T12:41:49;2.53;;;1.10;;
1378;SDS011;683;48.738;9.226;2023-05-10T12:44:17;2.20;;;0.90;;
1378;SDS011;683;48.738;9.226;2023-05-10T12:46:45;1.07;;;0.80;;
1378;SDS011;683;48.738;9.226;2023-05-10T12:49:14;1.23;;;1.13;;
1378;SDS011;683;48.738;9.226;2023-05-10T12:51:44;1.10;;;1.00;;
1378;SDS011;683;48.738;9.226;2023-05-10T12:54:12;1.07;;;0.90;;
1378;SDS011;683;48.738;9.226;2023-05-10T12:56:39;0.97;;;0.97;;
1378;SDS011;683;48.738;9.226;2023-05-10T12:59:08;1.60;;;0.97;;
1378;SDS011;683;48.738;9.226;2023-05-10T13:01:35;1.33;;;0.97;;
1378;SDS011;683;48.738;9.226;2023-05-10T13:04:03;1.27;;;1.17;;
1378;SDS011;683;48.738;9.226;2023-05-10T13:06:34;0.70;;;0.70;;
1378;SDS011;683;48.738;9.226;2023-05-10T13:09:02;2.10;;;1.63;;
1378;SDS011;683;48.738;9.226;2023-05-10T13:11:30;2.57;;;1.23;;
1378;SDS011;683;48.738;9.226;2023-05-10T13:13:58;1.70;;;1.27;;
1378;SDS011;683;48.738;9.226;2023-05-10T13:16:26;1.80;;;1.30;;
1378;SDS011;683;48.738;9.226;2023-05-10T13:18:53;1.43;;;0.97;;
1378;SDS011;683;48.738;9.226;2023-05-10T13:21:21;2.20;;;1.10;;
1378;SDS011;683;48.738;9.226;2023-05-10T13:23:51;1.20;;;1.10;;
1378;SDS011;683;48.738;9.226;2023-05-10T13:26:19;1.73;;;1.33;;
1378;SDS011;683;48.738;9.226;2023-05-10T13:28:47;2.33;;;1.10;;
1378;SDS011;683;48.738;9.226;2023-05-10T13:31:17;1.53;;;1.00;;
1378;SDS011;683;48.738;9.226;2023-05-10T13:33:44;0.93;;;0.80;;
1378;SDS011;683;48.738;9.226;2023-05-10T13:36:14;0.80;;;0.80;;
1378;SDS011;683;48.738;9.226;2023-05-10T13:38:42;1.90;;;1.03;;
1378;SDS011;683;48.738;9.226;2023-05-10T13:41:11;1.23;;;1.00;;
1378;SDS011;683;48.738;9.226;2023-05-10T13:43:39;1.30;;;1.10;;
1378;SDS011;683;48.738;9.226;2023-05-10T13:46:07;0.80;;;0.80;;
1378;SDS011;683;48.738;9.226;2023-05-10T13:48:35;1.47;;;1.00;;
1378;SDS011;683;48.738;9.226;2023-05-10T13:51:03;1.30;;;0.83;;
1378;SDS011;683;48.738;9.226;2023-05-10T13:53:31;1.83;;;1.20;;
1378;SDS011;683;48.738;9.226;2023-05-10T13:55:58;2.33;;;1.10;;
1378;SDS011;683;48.738;9.226;2023-05-10T13:58:29;3.00;;;1.10;;
1378;SDS011;683;48.738;9.226;2023-05-10T14:00:56;2.60;;;1.20;;
1378;SDS011;683;48.738;9.226;2023-05-10T14:03:24;2.47;;;1.07;;
1378;SDS011;683;48.738;9.226;2023-05-10T14:05:52;1.13;;;0.80;;
1378;SDS011;683;48.738;9.226;2023-05-10T14:08:19;4.07;;;1.00;;
1378;SDS011;683;48.738;9.226;2023-05-10T14:10:48;1.13;;;0.80;;
1378;SDS011;683;48.738;9.226;2023-05-10T14:13:16;1.87;;;1.27;;
1378;SDS011;683;48.738;9.226;2023-05-10T14:15:45;1.57;;;0.80;;
1378;SDS011;683;48.738;9.226;2023-05-10T14:18:13;3.17;;;1.43;;
1378;SDS011;683;48.738;9.226;2023-05-10T14:20:40;2.80;;;1.40;;
1378;SDS011;683;48.738;9.226;2023-05-10T14:23:08;3.37;;;1.40;;
1378;SDS011;683;48.738;9.226;2023-05-10T14:25:36;0.70;;;0.70;;
1378;SDS011;683;48.738;9.226;2023-05-10T14:28:04;1.87;;;0.80;;
1378;SDS011;683;48.738;9.226;2023-05-10T14:30:32;2.40;;;1.60;;
1378;SDS011;683;48.738;9.226;2023-05-10T14:33:01;2.80;;;1.20;;
1378;SDS011;683;48.738;9.226;2023-05-10T14:35:29;1.67;;;1.10;;
1378;SDS011;683;48.738;9.226;2023-05-10T14:37:57;1.20;;;1.10;;
1378;SDS011;683;48.738;9.226;2023-05-10T14:40:25;1.90;;;0.93;;
1378;SDS011;683;48.738;9.226;2023-05-10T14:42:53;2.07;;;1.30;;
1378;SDS011;683;48.738;9.226;2023-05-10T14:45:20;1.30;;;1.20;;
1378;SDS011;683;48.738;9.226;2023-05-10T14:47:48;1.00;;;0.87;;
1378;SDS011;683;48.738;9.226;2023-05-10T14:50:17;1.30;;;1.07;;
1378;SDS011;683;48.738;9.226;2023-05-10T14:52:45;2.27;;;1.07;;
1378;SDS011;683;48.738;9.226;2023-05-10T14:55:14;1.93;;;1.63;;
1378;SDS011;683;48.738;9.226;2023-05-10T14:57:43;1.37;;;1.00;;
1378;SDS011;683;48.738;9.226;2023-05-10T15:00:13;1.63;;;0.93;;
1378;SDS011;683;48.738;9.226;2023-05-10T15:02:42;2.17;;;1.20;;
1378;SDS011;683;48.738;9.226;2023-05-10T15:05:10;4.77;;;1.17;;
1378;SDS011;683;48.738;9.226;2023-05-10T15:07:39;1.33;;;0.70;;
1378;SDS011;683;48.738;9.226;2023-05-10T15:10:09;1.90;;;1.57;;
1378;SDS011;683;48.738;9.226;2023-05-10T15:12:37;3.23;;;0.70;;
1378;SDS011;683;48.738;9.226;2023-05-10T15:15:05;0.80;;;0.77;;
1378;SDS011;683;48.738;9.226;2023-05-10T15:17:34;2.43;;;0.93;;
1378;SDS011;683;48.738;9.226;2023-05-10T15:20:02;1.47;;;0.70;;
1378;SDS011;683;48.738;9.226;2023-05-10T15:22:30;2.60;;;0.90;;
1378;SDS011;683;48.738;9.226;2023-05-10T15:24:59;2.87;;;1.03;;
1378;SDS011;683;48.738;9.226;2023-05-10T15:27:27;1.17;;;0.80;;
1378;SDS011;683;48.738;9.226;2023-05-10T15:29:55;1.40;;;0.90;;
1378;SDS011;683;48.738;9.226;2023-05-10T15:32:24;2.10;;;1.00;;
1378;SDS011;683;48.738;9.226;2023-05-10T15:34:52;2.17;;;0.87;;
1378;SDS011;683;48.738;9.226;2023-05-10T15:37:20;1.73;;;1.10;;
1378;SDS011;683;48.738;9.226;2023-05-10T15:39:49;1.80;;;0.87;;
1378;SDS011;683;48.738;9.226;2023-05-10T15:42:18;3.63;;;1.33;;
1378;SDS011;683;48.738;9.226;2023-05-10T15:44:46;1.07;;;0.97;;
1378;SDS011;683;48.738;9.226;2023-05-10T15:47:15;3.70;;;1.40;;
1378;SDS011;683;48.738;9.226;2023-05-10T15:49:43;1.63;;;1.10;;